sensor_id;sensor_type;location;lat;lon;timestamp;pressure;altitude;pressure_sealevel;temperature;humidity
5595;BME280;1003;48.002;7.788;2023-02-04T00:00:12;101501.00;;;5.95;100.00
5595;BME280;1003;48.002;7.788;2023-02-04T00:02:39;101496.63;;;5.91;100.00
5595;BME280;1003;48.002;7.788;2023-02-04T00:05:08;101516.25;;;6.01;100.00
5595;BME280;1003;48.002;7.788;2023-02-04T00:07:36;101518.16;;;6.07;100.00
5595;BME280;1003;48.002;7.788;2023-02-04T00:10:05;101516.25;;;6.01;100.00
5595;BME280;1003;48.002;7.788;2023-02-04T00:12:34;101528.88;;;6.04;100.00
5595;BME280;1003;48.002;7.788;2023-02-04T00:15:01;101526.69;;;5.92;100.00
5595;BME280;1003;48.002;7.788;2023-02-04T00:17:28;101551.47;;;5.89;100.00
5595;BME280;1003;48.002;7.788;2023-02-04T00:19:55;101567.28;;;5.90;100.00
5595;BME280;1003;48.002;7.788;2023-02-04T00:22:22;101572.16;;;5.87;100.00
5595;BME280;1003;48.002;7.788;2023-02-04T00:24:51;101582.25;;;5.90;100.00
5595;BME280;1003;48.002;7.788;2023-02-04T00:27:18;101594.09;;;5.92;100.00
5595;BME280;1003;48.002;7.788;2023-02-04T00:29:46;101599.06;;;5.92;100.00
5595;BME280;1003;48.002;7.788;2023-02-04T00:32:13;101599.13;;;5.94;100.00
5595;BME280;1003;48.002;7.788;2023-02-04T00:34:40;101610.50;;;5.89;100.00
5595;BME280;1003;48.002;7.788;2023-02-04T00:37:07;101625.25;;;5.84;100.00
5595;BME280;1003;48.002;7.788;2023-02-04T00:39:35;101639.38;;;5.84;100.00
5595;BME280;1003;48.002;7.788;2023-02-04T00:42:02;101628.47;;;5.82;100.00
5595;BME280;1003;48.002;7.788;2023-02-04T00:44:30;101633.75;;;5.88;100.00
5595;BME280;1003;48.002;7.788;2023-02-04T00:46:58;101642.16;;;5.90;100.00
5595;BME280;1003;48.002;7.788;2023-02-04T00:49:25;101641.31;;;5.89;100.00
5595;BME280;1003;48.002;7.788;2023-02-04T00:51:52;101658.56;;;5.85;100.00
5595;BME280;1003;48.002;7.788;2023-02-04T00:54:19;101651.63;;;5.79;100.00
5595;BME280;1003;48.002;7.788;2023-02-04T00:56:47;101668.47;;;5.83;100.00
5595;BME280;1003;48.002;7.788;2023-02-04T00:59:14;101667.00;;;5.87;100.00
5595;BME280;1003;48.002;7.788;2023-02-04T01:01:41;101681.97;;;5.87;100.00
5595;BME280;1003;48.002;7.788;2023-02-04T01:04:10;101687.47;;;5.81;100.00
5595;BME280;1003;48.002;7.788;2023-02-04T01:06:37;101713.69;;;5.89;100.00
5595;BME280;1003;48.002;7.788;2023-02-04T01:09:04;101729.72;;;5.93;100.00
5595;BME280;1003;48.002;7.788;2023-02-04T01:11:32;101732.13;;;5.91;100.00
5595;BME280;1003;48.002;7.788;2023-02-04T01:13:59;101735.25;;;5.87;100.00
5595;BME280;1003;48.002;7.788;2023-02-04T01:16:26;101754.34;;;5.87;100.00
5595;BME280;1003;48.002;7.788;2023-02-04T01:18:53;101759.09;;;5.82;100.00
5595;BME280;1003;48.002;7.788;2023-02-04T01:21:22;101771.09;;;5.89;100.00
5595;BME280;1003;48.002;7.788;2023-02-04T01:23:49;101786.69;;;5.85;100.00
5595;BME280;1003;48.002;7.788;2023-02-04T01:26:17;101793.34;;;5.85;100.00
5595;BME280;1003;48.002;7.788;2023-02-04T01:28:44;101798.25;;;5.83;100.00
5595;BME280;1003;48.002;7.788;2023-02-04T01:31:12;101808.25;;;5.83;100.00
5595;BME280;1003;48.002;7.788;2023-02-04T01:33:39;101815.00;;;5.86;100.00
5595;BME280;1003;48.002;7.788;2023-02-04T01:36:07;101817.50;;;5.86;100.00
5595;BME280;1003;48.002;7.788;2023-02-04T01:38:36;101824.13;;;5.85;100.00
5595;BME280;1003;48.002;7.788;2023-02-04T01:41:04;101827.88;;;5.77;100.00
5595;BME280;1003;48.002;7.788;2023-02-04T01:43:32;101833.19;;;5.83;100.00
5595;BME280;1003;48.002;7.788;2023-02-04T01:46:00;101838.97;;;5.82;100.00
5595;BME280;1003;48.002;7.788;2023-02-04T01:48:28;101858.28;;;5.86;100.00
5595;BME280;1003;48.002;7.788;2023-02-04T01:51:02;101867.44;;;5.86;100.00
5595;BME280;1003;48.002;7.788;2023-02-04T01:53:31;101870.78;;;5.86;100.00
5595;BME280;1003;48.002;7.788;2023-02-04T01:56:01;101870.94;;;5.89;100.00
5595;BME280;1003;48.002;7.788;2023-02-04T01:58:37;101898.22;;;5.86;100.00
5595;BME280;1003;48.002;7.788;2023-02-04T02:01:10;101892.50;;;5.87;100.00
5595;BME280;1003;48.002;7.788;2023-02-04T02:03:39;101899.25;;;5.90;100.00
5595;BME280;1003;48.002;7.788;2023-02-04T02:06:08;101910.31;;;5.93;100.00
5595;BME280;1003;48.002;7.788;2023-02-04T02:08:36;101915.81;;;5.88;100.00
5595;BME280;1003;48.002;7.788;2023-02-04T02:11:05;101915.09;;;5.90;100.00
5595;BME280;1003;48.002;7.788;2023-02-04T02:13:32;101916.41;;;5.98;100.00
5595;BME280;1003;48.002;7.788;2023-02-04T02:15:59;101903.59;;;5.92;100.00
5595;BME280;1003;48.002;7.788;2023-02-04T02:18:26;101904.47;;;5.93;100.00
5595;BME280;1003;48.002;7.788;2023-02-04T02:20:54;101909.47;;;5.93;100.00
5595;BME280;1003;48.002;7.788;2023-02-04T02:23:41;101903.69;;;5.94;100.00
5595;BME280;1003;48.002;7.788;2023-02-04T02:26:11;101909.31;;;6.06;100.00
5595;BME280;1003;48.002;7.788;2023-02-04T02:28:38;101911.41;;;5.98;100.00
5595;BME280;1003;48.002;7.788;2023-02-04T02:31:05;101898.81;;;5.97;100.00
5595;BME280;1003;48.002;7.788;2023-02-04T02:33:33;101902.03;;;5.94;100.00
5595;BME280;1003;48.002;7.788;2023-02-04T02:36:00;101914.69;;;5.97;100.00
5595;BME280;1003;48.002;7.788;2023-02-04T02:38:28;101923.91;;;5.98;100.00
5595;BME280;1003;48.002;7.788;2023-02-04T02:40:56;101918.72;;;5.95;100.00
5595;BME280;1003;48.002;7.788;2023-02-04T02:43:26;101914.53;;;5.94;100.00
5595;BME280;1003;48.002;7.788;2023-02-04T02:45:56;101918.13;;;5.99;100.00
5595;BME280;1003;48.002;7.788;2023-02-04T02:48:24;101923.19;;;6.01;100.00
5595;BME280;1003;48.002;7.788;2023-02-04T02:50:52;101919.03;;;6.01;100.00
5595;BME280;1003;48.002;7.788;2023-02-04T02:53:20;101922.88;;;6.11;100.00
5595;BME280;1003;48.002;7.788;2023-02-04T02:55:47;101922.56;;;6.05;100.00
5595;BME280;1003;48.002;7.788;2023-02-04T02:58:22;101928.66;;;6.10;100.00
5595;BME280;1003;48.002;7.788;2023-02-04T03:00:50;101921.72;;;6.04;100.00
5595;BME280;1003;48.002;7.788;2023-02-04T03:03:22;101940.22;;;6.08;100.00
5595;BME280;1003;48.002;7.788;2023-02-04T03:05:57;101935.31;;;6.10;100.00
5595;BME280;1003;48.002;7.788;2023-02-04T03:08:26;101941.41;;;6.15;100.00
5595;BME280;1003;48.002;7.788;2023-02-04T03:10:53;101931.00;;;6.07;100.00
5595;BME280;1003;48.002;7.788;2023-02-04T03:13:22;101936.09;;;6.09;100.00
5595;BME280;1003;48.002;7.788;2023-02-04T03:15:49;101951.22;;;6.12;100.00
5595;BME280;1003;48.002;7.788;2023-02-04T03:18:19;101946.16;;;6.10;100.00
5595;BME280;1003;48.002;7.788;2023-02-04T03:20:48;101949.56;;;6.12;100.00
5595;BME280;1003;48.002;7.788;2023-02-04T03:23:16;101951.16;;;6.10;100.00
5595;BME280;1003;48.002;7.788;2023-02-04T03:25:44;101950.22;;;6.08;100.00
5595;BME280;1003;48.002;7.788;2023-02-04T03:28:11;101949.25;;;6.06;100.00
5595;BME280;1003;48.002;7.788;2023-02-04T03:30:39;101953.09;;;6.16;100.00
5595;BME280;1003;48.002;7.788;2023-02-04T03:33:06;101947.06;;;6.12;100.00
5595;BME280;1003;48.002;7.788;2023-02-04T03:35:33;101951.22;;;6.12;100.00
5595;BME280;1003;48.002;7.788;2023-02-04T03:38:00;101957.91;;;6.13;100.00
5595;BME280;1003;48.002;7.788;2023-02-04T03:40:27;101964.66;;;6.14;100.00
5595;BME280;1003;48.002;7.788;2023-02-04T03:42:54;101977.00;;;6.27;100.00
5595;BME280;1003;48.002;7.788;2023-02-04T03:45:21;101970.59;;;6.16;100.00
5595;BME280;1003;48.002;7.788;2023-02-04T03:47:49;101968.34;;;6.20;100.00
5595;BME280;1003;48.002;7.788;2023-02-04T03:50:17;101955.44;;;6.13;100.00
5595;BME280;1003;48.002;7.788;2023-02-04T03:52:44;101959.66;;;6.14;100.00
5595;BME280;1003;48.002;7.788;2023-02-04T03:55:11;101957.78;;;6.10;100.00
5595;BME280;1003;48.002;7.788;2023-02-04T03:57:38;101956.75;;;6.06;100.00
5595;BME280;1003;48.002;7.788;2023-02-04T04:00:06;101960.94;;;6.07;100.00
5595;BME280;1003;48.002;7.788;2023-02-04T04:02:33;101966.91;;;6.09;100.00
5595;BME280;1003;48.002;7.788;2023-02-04T04:05:02;101976.97;;;6.11;100.00
5595;BME280;1003;48.002;7.788;2023-02-04T04:07:29;101983.06;;;6.16;100.00
5595;BME280;1003;48.002;7.788;2023-02-04T04:09:56;101994.63;;;6.14;100.00
5595;BME280;1003;48.002;7.788;2023-02-04T04:12:23;101997.72;;;6.10;100.00
5595;BME280;1003;48.002;7.788;2023-02-04T04:14:50;102004.38;;;6.09;100.00
5595;BME280;1003;48.002;7.788;2023-02-04T04:17:17;101991.88;;;6.09;100.00
5595;BME280;1003;48.002;7.788;2023-02-04T04:19:44;102004.63;;;6.14;100.00
5595;BME280;1003;48.002;7.788;2023-02-04T04:22:12;102013.19;;;6.19;100.00
5595;BME280;1003;48.002;7.788;2023-02-04T04:24:39;102016.47;;;6.18;100.00
5595;BME280;1003;48.002;7.788;2023-02-04T04:27:07;102009.59;;;6.14;100.00
5595;BME280;1003;48.002;7.788;2023-02-04T04:29:34;102015.34;;;6.13;100.00
5595;BME280;1003;48.002;7.788;2023-02-04T04:32:01;102014.50;;;6.12;100.00
5595;BME280;1003;48.002;7.788;2023-02-04T04:34:29;102022.94;;;6.14;100.00
5595;BME280;1003;48.002;7.788;2023-02-04T04:36:56;102024.81;;;6.18;100.00
5595;BME280;1003;48.002;7.788;2023-02-04T04:39:25;102023.81;;;6.15;100.00
5595;BME280;1003;48.002;7.788;2023-02-04T04:41:52;102032.09;;;6.14;100.00
5595;BME280;1003;48.002;7.788;2023-02-04T04:44:19;102033.53;;;6.10;100.00
5595;BME280;1003;48.002;7.788;2023-02-04T04:46:47;102034.72;;;6.17;100.00
5595;BME280;1003;48.002;7.788;2023-02-04T04:49:14;102046.06;;;6.26;100.00
5595;BME280;1003;48.002;7.788;2023-02-04T04:51:41;102036.63;;;6.21;100.00
5595;BME280;1003;48.002;7.788;2023-02-04T04:54:08;102036.63;;;6.21;100.00
5595;BME280;1003;48.002;7.788;2023-02-04T04:56:36;102026.56;;;6.19;100.00
5595;BME280;1003;48.002;7.788;2023-02-04T04:59:03;102022.25;;;6.17;100.00
5595;BME280;1003;48.002;7.788;2023-02-04T05:01:31;102026.97;;;6.12;100.00
5595;BME280;1003;48.002;7.788;2023-02-04T05:03:58;102028.03;;;6.16;100.00
5595;BME280;1003;48.002;7.788;2023-02-04T05:06:25;102025.66;;;6.19;100.00
5595;BME280;1003;48.002;7.788;2023-02-04T05:08:52;102029.66;;;6.15;100.00
5595;BME280;1003;48.002;7.788;2023-02-04T05:11:19;102020.66;;;6.19;100.00
5595;BME280;1003;48.002;7.788;2023-02-04T05:13:48;102027.47;;;6.21;100.00
5595;BME280;1003;48.002;7.788;2023-02-04T05:16:15;102028.09;;;6.17;100.00
5595;BME280;1003;48.002;7.788;2023-02-04T05:18:43;102024.75;;;6.17;100.00
5595;BME280;1003;48.002;7.788;2023-02-04T05:21:10;102040.66;;;6.19;100.00
5595;BME280;1003;48.002;7.788;2023-02-04T05:23:37;102046.06;;;6.26;100.00
5595;BME280;1003;48.002;7.788;2023-02-04T05:26:04;102052.72;;;6.26;100.00
5595;BME280;1003;48.002;7.788;2023-02-04T05:28:31;102068.47;;;6.25;100.00
5595;BME280;1003;48.002;7.788;2023-02-04T05:31:00;102065.28;;;6.27;100.00
5595;BME280;1003;48.002;7.788;2023-02-04T05:33:27;102069.50;;;6.28;100.00
5595;BME280;1003;48.002;7.788;2023-02-04T05:35:54;102064.50;;;6.28;100.00
5595;BME280;1003;48.002;7.788;2023-02-04T05:38:21;102081.38;;;6.32;100.00
5595;BME280;1003;48.002;7.788;2023-02-04T05:40:47;102076.97;;;6.28;100.00
5595;BME280;1003;48.002;7.788;2023-02-04T05:43:15;102078.47;;;6.25;100.00
5595;BME280;1003;48.002;7.788;2023-02-04T05:45:42;102077.50;;;6.23;100.00
5595;BME280;1003;48.002;7.788;2023-02-04T05:48:10;102087.69;;;6.26;100.00
5595;BME280;1003;48.002;7.788;2023-02-04T05:50:37;102098.00;;;6.32;100.00
5595;BME280;1003;48.002;7.788;2023-02-04T05:53:04;102106.34;;;6.32;100.00
5595;BME280;1003;48.002;7.788;2023-02-04T05:55:31;102109.72;;;6.33;100.00
5595;BME280;1003;48.002;7.788;2023-02-04T05:57:58;102113.91;;;6.34;100.00
5595;BME280;1003;48.002;7.788;2023-02-04T06:00:26;102121.91;;;6.43;100.00
5595;BME280;1003;48.002;7.788;2023-02-04T06:02:53;102115.03;;;6.39;100.00
5595;BME280;1003;48.002;7.788;2023-02-04T06:05:21;102113.06;;;6.34;100.00
5595;BME280;1003;48.002;7.788;2023-02-04T06:07:48;102113.06;;;6.34;100.00
5595;BME280;1003;48.002;7.788;2023-02-04T06:10:16;102121.06;;;6.43;100.00
5595;BME280;1003;48.002;7.788;2023-02-04T06:12:43;102129.09;;;6.37;100.00
5595;BME280;1003;48.002;7.788;2023-02-04T06:15:10;102138.22;;;6.37;100.00
5595;BME280;1003;48.002;7.788;2023-02-04T06:17:37;102144.88;;;6.36;100.00
5595;BME280;1003;48.002;7.788;2023-02-04T06:20:06;102150.97;;;6.41;100.00
5595;BME280;1003;48.002;7.788;2023-02-04T06:22:35;102158.22;;;6.37;100.00
5595;BME280;1003;48.002;7.788;2023-02-04T06:25:02;102163.13;;;6.35;100.00
5595;BME280;1003;48.002;7.788;2023-02-04T06:27:29;102157.34;;;6.36;100.00
5595;BME280;1003;48.002;7.788;2023-02-04T06:29:56;102171.56;;;6.37;100.00
5595;BME280;1003;48.002;7.788;2023-02-04T06:32:23;102178.19;;;6.37;100.00
5595;BME280;1003;48.002;7.788;2023-02-04T06:34:50;102182.50;;;6.39;100.00
5595;BME280;1003;48.002;7.788;2023-02-04T06:37:17;102184.91;;;6.38;100.00
5595;BME280;1003;48.002;7.788;2023-02-04T06:39:46;102184.84;;;6.36;100.00
5595;BME280;1003;48.002;7.788;2023-02-04T06:42:13;102197.41;;;6.38;100.00
5595;BME280;1003;48.002;7.788;2023-02-04T06:44:40;102197.41;;;6.38;100.00
5595;BME280;1003;48.002;7.788;2023-02-04T06:47:07;102201.94;;;6.45;100.00
5595;BME280;1003;48.002;7.788;2023-02-04T06:49:34;102210.22;;;6.44;100.00
5595;BME280;1003;48.002;7.788;2023-02-04T06:52:01;102213.50;;;6.43;100.00
5595;BME280;1003;48.002;7.788;2023-02-04T06:54:28;102211.94;;;6.45;100.00
5595;BME280;1003;48.002;7.788;2023-02-04T06:56:57;102220.16;;;6.42;100.00
5595;BME280;1003;48.002;7.788;2023-02-04T06:59:31;102228.31;;;6.40;100.00
5595;BME280;1003;48.002;7.788;2023-02-04T07:01:58;102230.75;;;6.38;100.00
5595;BME280;1003;48.002;7.788;2023-02-04T07:04:25;102233.84;;;6.34;100.00
5595;BME280;1003;48.002;7.788;2023-02-04T07:06:52;102254.16;;;6.40;100.00
5595;BME280;1003;48.002;7.788;2023-02-04T07:09:19;102261.75;;;6.42;100.00
5595;BME280;1003;48.002;7.788;2023-02-04T07:11:46;102264.16;;;6.40;100.00
5595;BME280;1003;48.002;7.788;2023-02-04T07:14:15;102276.75;;;6.42;100.00
5595;BME280;1003;48.002;7.788;2023-02-04T07:16:43;102291.16;;;6.46;100.00
5595;BME280;1003;48.002;7.788;2023-02-04T07:19:10;102298.53;;;6.44;100.00
5595;BME280;1003;48.002;7.788;2023-02-04T07:21:37;102335.34;;;6.47;100.00
5595;BME280;1003;48.002;7.788;2023-02-04T07:24:05;102371.34;;;6.50;100.00
5595;BME280;1003;48.002;7.788;2023-02-04T07:26:32;102388.34;;;6.56;100.00
5595;BME280;1003;48.002;7.788;2023-02-04T07:28:59;102389.97;;;6.55;100.00
5595;BME280;1003;48.002;7.788;2023-02-04T07:31:28;102389.63;;;6.49;100.00
5595;BME280;1003;48.002;7.788;2023-02-04T07:33:55;102397.91;;;6.48;100.00
5595;BME280;1003;48.002;7.788;2023-02-04T07:36:22;102409.97;;;6.55;100.00
5595;BME280;1003;48.002;7.788;2023-02-04T07:38:49;102480.66;;;6.53;100.00
5595;BME280;1003;48.002;7.788;2023-02-04T07:41:16;102527.63;;;6.58;100.00
5595;BME280;1003;48.002;7.788;2023-02-04T07:43:43;102541.00;;;6.59;100.00
5595;BME280;1003;48.002;7.788;2023-02-04T07:46:10;102561.75;;;6.58;100.00
5595;BME280;1003;48.002;7.788;2023-02-04T07:48:39;102572.44;;;6.55;100.00
5595;BME280;1003;48.002;7.788;2023-02-04T07:51:06;102612.41;;;6.55;100.00
5595;BME280;1003;48.002;7.788;2023-02-04T07:53:33;102657.19;;;6.66;100.00
5595;BME280;1003;48.002;7.788;2023-02-04T07:56:00;102703.91;;;6.67;100.00
5595;BME280;1003;48.002;7.788;2023-02-04T07:58:27;102733.94;;;6.67;100.00
5595;BME280;1003;48.002;7.788;2023-02-04T08:00:54;102754.78;;;6.67;100.00
5595;BME280;1003;48.002;7.788;2023-02-04T08:03:21;102771.72;;;6.71;100.00
5595;BME280;1003;48.002;7.788;2023-02-04T08:05:49;102801.25;;;6.77;100.00
5595;BME280;1003;48.002;7.788;2023-02-04T08:08:16;102806.94;;;6.74;100.00
5595;BME280;1003;48.002;7.788;2023-02-04T08:10:43;102809.91;;;6.69;100.00
5595;BME280;1003;48.002;7.788;2023-02-04T08:13:10;102832.00;;;6.63;100.00
5595;BME280;1003;48.002;7.788;2023-02-04T08:15:37;102865.00;;;6.70;100.00
5595;BME280;1003;48.002;7.788;2023-02-04T08:18:05;102892.97;;;6.78;100.00
5595;BME280;1003;48.002;7.788;2023-02-04T08:20:32;102897.97;;;6.78;100.00
5595;BME280;1003;48.002;7.788;2023-02-04T08:23:00;102923.97;;;6.80;100.00
5595;BME280;1003;48.002;7.788;2023-02-04T08:25:27;102940.41;;;6.76;100.00
5595;BME280;1003;48.002;7.788;2023-02-04T08:27:54;102981.72;;;6.96;100.00
5595;BME280;1003;48.002;7.788;2023-02-04T08:30:21;103000.50;;;7.03;100.00
5595;BME280;1003;48.002;7.788;2023-02-04T08:32:48;103018.94;;;7.17;100.00
5595;BME280;1003;48.002;7.788;2023-02-04T08:35:16;103015.34;;;7.13;100.00
5595;BME280;1003;48.002;7.788;2023-02-04T08:37:43;103017.94;;;7.15;100.00
5595;BME280;1003;48.002;7.788;2023-02-04T08:40:12;103006.03;;;7.10;100.00
5595;BME280;1003;48.002;7.788;2023-02-04T08:42:39;102997.53;;;7.08;100.00
5595;BME280;1003;48.002;7.788;2023-02-04T08:45:07;102990.44;;;7.15;100.00
5595;BME280;1003;48.002;7.788;2023-02-04T08:47:34;102950.88;;;7.09;100.00
5595;BME280;1003;48.002;7.788;2023-02-04T08:50:01;102902.56;;;7.10;100.00
5595;BME280;1003;48.002;7.788;2023-02-04T08:52:28;102830.88;;;7.24;100.00
5595;BME280;1003;48.002;7.788;2023-02-04T08:54:55;102732.53;;;7.25;100.00
5595;BME280;1003;48.002;7.788;2023-02-04T08:57:24;102694.81;;;7.22;100.00
5595;BME280;1003;48.002;7.788;2023-02-04T08:59:51;102674.25;;;7.13;100.00
5595;BME280;1003;48.002;7.788;2023-02-04T09:02:18;102657.69;;;7.15;100.00
5595;BME280;1003;48.002;7.788;2023-02-04T09:04:45;102670.94;;;7.27;100.00
5595;BME280;1003;48.002;7.788;2023-02-04T09:07:12;102644.34;;;7.29;100.00
5595;BME280;1003;48.002;7.788;2023-02-04T09:09:39;102626.28;;;7.05;100.00
5595;BME280;1003;48.002;7.788;2023-02-04T09:12:06;102634.81;;;7.08;100.00
5595;BME280;1003;48.002;7.788;2023-02-04T09:14:34;102650.94;;;7.27;100.00
5595;BME280;1003;48.002;7.788;2023-02-04T09:17:01;102652.66;;;7.28;100.00
5595;BME280;1003;48.002;7.788;2023-02-04T09:19:28;102635.53;;;7.21;100.00
5595;BME280;1003;48.002;7.788;2023-02-04T09:21:55;102631.03;;;7.15;100.00
5595;BME280;1003;48.002;7.788;2023-02-04T09:24:22;102630.06;;;7.13;100.00
5595;BME280;1003;48.002;7.788;2023-02-04T09:26:50;102634.31;;;7.14;100.00
5595;BME280;1003;48.002;7.788;2023-02-04T09:29:17;102613.16;;;7.09;100.00
5595;BME280;1003;48.002;7.788;2023-02-04T09:31:45;102617.78;;;7.31;100.00
5595;BME280;1003;48.002;7.788;2023-02-04T09:34:13;102616.38;;;7.49;100.00
5595;BME280;1003;48.002;7.788;2023-02-04T09:36:40;102588.13;;;7.52;100.00
5595;BME280;1003;48.002;7.788;2023-02-04T09:39:08;102548.59;;;7.61;100.00
5595;BME280;1003;48.002;7.788;2023-02-04T09:41:37;102489.56;;;7.65;100.00
5595;BME280;1003;48.002;7.788;2023-02-04T09:44:13;102438.59;;;7.64;100.00
5595;BME280;1003;48.002;7.788;2023-02-04T09:46:50;102378.00;;;7.70;100.00
5595;BME280;1003;48.002;7.788;2023-02-04T09:49:18;102371.16;;;7.67;100.00
5595;BME280;1003;48.002;7.788;2023-02-04T09:51:46;102350.06;;;7.78;100.00
5595;BME280;1003;48.002;7.788;2023-02-04T09:54:17;102316.81;;;7.81;100.00
5595;BME280;1003;48.002;7.788;2023-02-04T09:56:45;102271.03;;;7.83;100.00
5595;BME280;1003;48.002;7.788;2023-02-04T09:59:15;102240.97;;;7.83;100.00
5595;BME280;1003;48.002;7.788;2023-02-04T10:01:45;102220.00;;;7.98;100.00
5595;BME280;1003;48.002;7.788;2023-02-04T10:04:14;102210.56;;;8.10;100.00
5595;BME280;1003;48.002;7.788;2023-02-04T10:06:42;102192.13;;;8.26;100.00
5595;BME280;1003;48.002;7.788;2023-02-04T10:09:11;102173.50;;;8.21;100.00
5595;BME280;1003;48.002;7.788;2023-02-04T10:11:42;102152.59;;;8.20;100.00
5595;BME280;1003;48.002;7.788;2023-02-04T10:14:14;102143.59;;;7.89;100.00
5595;BME280;1003;48.002;7.788;2023-02-04T10:16:51;102144.50;;;8.08;100.00
5595;BME280;1003;48.002;7.788;2023-02-04T10:19:20;102138.56;;;8.24;100.00
5595;BME280;1003;48.002;7.788;2023-02-04T10:21:47;102121.50;;;8.16;100.00
5595;BME280;1003;48.002;7.788;2023-02-04T10:24:18;102103.06;;;8.14;100.00
5595;BME280;1003;48.002;7.788;2023-02-04T10:26:46;102100.31;;;8.28;100.00
5595;BME280;1003;48.002;7.788;2023-02-04T10:29:16;102096.84;;;8.42;100.00
5595;BME280;1003;48.002;7.788;2023-02-04T10:31:46;102096.31;;;8.49;100.00
5595;BME280;1003;48.002;7.788;2023-02-04T10:34:17;102086.72;;;8.58;100.00
5595;BME280;1003;48.002;7.788;2023-02-04T10:36:47;102081.53;;;8.73;100.00
5595;BME280;1003;48.002;7.788;2023-02-04T10:39:18;102072.16;;;8.69;100.00
5595;BME280;1003;48.002;7.788;2023-02-04T10:41:48;102036.63;;;8.40;100.00
5595;BME280;1003;48.002;7.788;2023-02-04T10:44:18;102018.78;;;8.34;100.00
5595;BME280;1003;48.002;7.788;2023-02-04T10:46:46;102001.38;;;8.37;100.00
5595;BME280;1003;48.002;7.788;2023-02-04T10:49:23;101991.56;;;8.42;100.00
5595;BME280;1003;48.002;7.788;2023-02-04T10:51:51;101988.25;;;8.43;100.00
5595;BME280;1003;48.002;7.788;2023-02-04T10:54:22;101987.88;;;8.53;100.00
5595;BME280;1003;48.002;7.788;2023-02-04T10:56:58;101972.44;;;8.63;100.00
5595;BME280;1003;48.002;7.788;2023-02-04T10:59:26;101972.16;;;8.77;100.00
5595;BME280;1003;48.002;7.788;2023-02-04T11:01:55;101961.91;;;8.91;100.00
5595;BME280;1003;48.002;7.788;2023-02-04T11:04:25;101942.94;;;8.98;100.00
5595;BME280;1003;48.002;7.788;2023-02-04T11:06:53;101924.16;;;9.09;100.00
5595;BME280;1003;48.002;7.788;2023-02-04T11:09:21;101911.81;;;9.14;100.00
5595;BME280;1003;48.002;7.788;2023-02-04T11:11:49;101883.91;;;9.06;100.00
5595;BME280;1003;48.002;7.788;2023-02-04T11:14:24;101869.31;;;9.18;100.00
5595;BME280;1003;48.002;7.788;2023-02-04T11:16:51;101846.47;;;9.33;100.00
5595;BME280;1003;48.002;7.788;2023-02-04T11:19:34;101825.59;;;9.34;100.00
5595;BME280;1003;48.002;7.788;2023-02-04T11:22:19;101788.56;;;9.29;100.00
5595;BME280;1003;48.002;7.788;2023-02-04T11:24:48;101763.47;;;9.29;100.00
5595;BME280;1003;48.002;7.788;2023-02-04T11:27:22;101748.66;;;9.12;100.00
5595;BME280;1003;48.002;7.788;2023-02-04T11:29:50;101733.78;;;9.41;100.00
5595;BME280;1003;48.002;7.788;2023-02-04T11:32:32;101698.72;;;9.42;100.00
5595;BME280;1003;48.002;7.788;2023-02-04T11:35:24;101686.34;;;9.72;100.00
5595;BME280;1003;48.002;7.788;2023-02-04T11:37:52;101660.25;;;9.43;100.00
5595;BME280;1003;48.002;7.788;2023-02-04T11:40:29;101606.63;;;9.41;100.00
5595;BME280;1003;48.002;7.788;2023-02-04T11:43:02;101582.41;;;9.42;100.00
5595;BME280;1003;48.002;7.788;2023-02-04T11:45:33;101551.13;;;9.32;100.00
5595;BME280;1003;48.002;7.788;2023-02-04T11:48:15;101548.06;;;9.68;100.00
5595;BME280;1003;48.002;7.788;2023-02-04T11:50:55;101510.16;;;9.87;100.00
5595;BME280;1003;48.002;7.788;2023-02-04T11:53:28;101451.50;;;9.85;100.00
5595;BME280;1003;48.002;7.788;2023-02-04T11:55:56;101428.22;;;9.91;100.00
5595;BME280;1003;48.002;7.788;2023-02-04T11:58:23;101399.91;;;10.27;100.00
5595;BME280;1003;48.002;7.788;2023-02-04T12:00:51;101352.25;;;10.30;100.00
5595;BME280;1003;48.002;7.788;2023-02-04T12:03:23;101301.66;;;10.17;100.00
5595;BME280;1003;48.002;7.788;2023-02-04T12:05:52;101253.06;;;10.18;100.00
5595;BME280;1003;48.002;7.788;2023-02-04T12:08:31;101217.06;;;10.19;100.00
5595;BME280;1003;48.002;7.788;2023-02-04T12:11:04;101157.88;;;9.63;100.00
5595;BME280;1003;48.002;7.788;2023-02-04T12:13:33;101133.19;;;10.14;100.00
5595;BME280;1003;48.002;7.788;2023-02-04T12:16:02;101103.56;;;10.37;100.00
5595;BME280;1003;48.002;7.788;2023-02-04T12:18:32;101086.25;;;10.49;100.00
5595;BME280;1003;48.002;7.788;2023-02-04T12:21:03;101055.75;;;10.34;100.00
5595;BME280;1003;48.002;7.788;2023-02-04T12:23:30;101037.31;;;10.34;100.00
5595;BME280;1003;48.002;7.788;2023-02-04T12:25:58;101022.72;;;10.17;100.00
5595;BME280;1003;48.002;7.788;2023-02-04T12:28:26;100997.78;;;10.27;100.00
5595;BME280;1003;48.002;7.788;2023-02-04T12:30:53;101026.38;;;9.94;100.00
5595;BME280;1003;48.002;7.788;2023-02-04T12:33:20;101029.78;;;9.96;100.00
5595;BME280;1003;48.002;7.788;2023-02-04T12:35:48;101018.91;;;9.97;100.00
5595;BME280;1003;48.002;7.788;2023-02-04T12:38:16;101002.59;;;10.17;100.00
5595;BME280;1003;48.002;7.788;2023-02-04T12:40:44;100981.50;;;10.11;100.00
5595;BME280;1003;48.002;7.788;2023-02-04T12:43:11;100967.63;;;10.27;100.00
5595;BME280;1003;48.002;7.788;2023-02-04T12:45:38;100964.69;;;10.49;100.00
5595;BME280;1003;48.002;7.788;2023-02-04T12:48:10;100927.25;;;10.19;100.00
5595;BME280;1003;48.002;7.788;2023-02-04T12:50:37;100937.84;;;10.45;100.00
5595;BME280;1003;48.002;7.788;2023-02-04T12:53:05;100915.41;;;10.57;100.00
5595;BME280;1003;48.002;7.788;2023-02-04T12:55:33;100902.72;;;10.49;100.00
5595;BME280;1003;48.002;7.788;2023-02-04T12:58:01;100895.22;;;10.54;100.00
5595;BME280;1003;48.002;7.788;2023-02-04T13:00:28;100870.69;;;10.39;100.00
5595;BME280;1003;48.002;7.788;2023-02-04T13:02:55;100857.28;;;10.40;100.00
5595;BME280;1003;48.002;7.788;2023-02-04T13:05:24;100863.66;;;10.23;100.00
5595;BME280;1003;48.002;7.788;2023-02-04T13:07:51;100860.34;;;10.24;100.00
5595;BME280;1003;48.002;7.788;2023-02-04T13:10:19;100853.75;;;10.29;100.00
5595;BME280;1003;48.002;7.788;2023-02-04T13:12:50;100843.38;;;10.12;100.00
5595;BME280;1003;48.002;7.788;2023-02-04T13:15:17;100845.16;;;10.18;100.00